createdAt,value
2018-09-04T00:02:02.441Z,5.73
2018-09-04T00:04:31.530Z,6.43
2018-09-04T00:07:02.349Z,6.93
2018-09-04T00:09:46.154Z,6.30
2018-09-04T00:12:15.246Z,6.30
2018-09-04T00:14:46.367Z,6.37
2018-09-04T00:17:15.590Z,7.17
2018-09-04T00:19:44.806Z,7.20
2018-09-04T00:22:14.021Z,6.80
2018-09-04T00:24:42.974Z,6.10
2018-09-04T00:27:11.962Z,6.97
2018-09-04T00:29:40.898Z,7.03
2018-09-04T00:32:11.382Z,6.87
2018-09-04T00:34:42.632Z,6.03
2018-09-04T00:37:11.791Z,6.30
2018-09-04T00:39:40.682Z,5.60
2018-09-04T00:42:10.550Z,5.93
2018-09-04T00:44:39.642Z,6.10
2018-09-04T00:47:08.577Z,6.37
2018-09-04T00:49:38.693Z,6.47
2018-09-04T00:52:08.507Z,6.30
2018-09-04T00:54:38.381Z,6.73
2018-09-04T00:57:07.342Z,6.17
2018-09-04T00:59:36.358Z,5.73
2018-09-04T01:02:05.608Z,5.50
2018-09-04T01:04:34.576Z,6.10
2018-09-04T01:07:03.539Z,6.30
2018-09-04T01:09:32.528Z,6.33
2018-09-04T01:12:01.562Z,5.90
2018-09-04T01:14:30.544Z,6.23
2018-09-04T01:16:59.468Z,6.07
2018-09-04T01:19:28.402Z,6.80
2018-09-04T01:21:57.384Z,6.50
2018-09-04T01:24:26.713Z,6.13
2018-09-04T01:26:55.829Z,7.07
2018-09-04T01:29:24.888Z,6.00
2018-09-04T01:31:54.202Z,6.47
2018-09-04T01:34:23.454Z,6.37
2018-09-04T01:36:52.497Z,6.33
2018-09-04T01:39:21.406Z,5.37
2018-09-04T01:41:51.469Z,5.80
2018-09-04T01:44:20.676Z,6.37
2018-09-04T01:46:49.640Z,5.67
2018-09-04T01:49:18.643Z,5.73
2018-09-04T01:51:47.985Z,5.73
2018-09-04T01:54:16.933Z,5.33
2018-09-04T01:56:45.823Z,5.50
2018-09-04T01:59:15.484Z,5.40
2018-09-04T02:01:44.717Z,6.33
2018-09-04T02:04:13.683Z,6.00
2018-09-04T02:06:42.681Z,6.03
2018-09-04T02:09:11.902Z,5.87
2018-09-04T02:11:40.838Z,6.20
2018-09-04T02:14:09.897Z,6.13
2018-09-04T02:16:39.582Z,5.93
2018-09-04T02:19:09.358Z,7.40
2018-09-04T02:21:38.305Z,6.97
2018-09-04T02:24:07.233Z,6.13
2018-09-04T02:26:36.167Z,7.33
2018-09-04T02:29:05.220Z,7.30
2018-09-04T02:31:34.107Z,7.13
2018-09-04T02:34:02.987Z,7.50
2018-09-04T02:36:32.001Z,7.17
2018-09-04T02:39:01.043Z,6.23
2018-09-04T02:41:30.010Z,6.80
2018-09-04T02:43:59.134Z,7.20
2018-09-04T02:46:28.105Z,6.73
2018-09-04T02:48:57.134Z,6.53
2018-09-04T02:51:26.078Z,6.53
2018-09-04T02:53:55.061Z,7.17
2018-09-04T02:56:24.067Z,6.93
2018-09-04T02:58:53.189Z,7.50
2018-09-04T03:01:22.083Z,7.13
2018-09-04T03:03:51.061Z,7.20
2018-09-04T03:06:20.121Z,6.33
2018-09-04T03:08:49.121Z,8.23
2018-09-04T03:11:18.846Z,8.13
2018-09-04T03:13:47.903Z,7.30
2018-09-04T03:16:17.009Z,7.03
2018-09-04T03:18:45.994Z,6.73
2018-09-04T03:21:14.935Z,6.83
2018-09-04T03:23:44.672Z,6.47
2018-09-04T03:26:13.726Z,6.17
2018-09-04T03:28:42.713Z,6.37
2018-09-04T03:31:11.669Z,6.43
2018-09-04T03:33:40.602Z,6.27
2018-09-04T03:36:09.667Z,6.83
2018-09-04T03:38:38.705Z,6.03
2018-09-04T03:41:07.656Z,6.27
2018-09-04T03:43:36.642Z,6.80
2018-09-04T03:46:05.857Z,6.67
2018-09-04T03:48:34.810Z,6.53
2018-09-04T03:51:03.976Z,6.60
2018-09-04T03:53:32.874Z,6.47
2018-09-04T03:56:01.816Z,5.97
2018-09-04T03:58:30.776Z,6.87
2018-09-04T04:00:59.719Z,6.63
2018-09-04T04:03:28.711Z,6.60
2018-09-04T04:05:57.648Z,7.07
2018-09-04T04:08:27.902Z,7.40
2018-09-04T04:10:57.671Z,7.10
2018-09-04T04:13:26.605Z,6.17
2018-09-04T04:15:55.586Z,6.67
2018-09-04T04:18:24.805Z,7.30
2018-09-04T04:21:02.406Z,8.23
2018-09-04T04:23:31.689Z,7.30
2018-09-04T04:26:02.576Z,7.53
2018-09-04T04:28:31.608Z,7.70
2018-09-04T04:31:00.549Z,7.53
2018-09-04T04:33:29.439Z,7.33
2018-09-04T04:35:58.495Z,8.97
2018-09-04T04:38:27.496Z,8.20
2018-09-04T04:40:56.477Z,7.90
2018-09-04T04:43:25.496Z,7.80
2018-09-04T04:45:54.536Z,8.13
2018-09-04T04:48:23.485Z,8.37
2018-09-04T04:50:52.495Z,8.37
2018-09-04T04:53:21.767Z,8.10
2018-09-04T04:55:50.763Z,8.40
2018-09-04T04:58:19.837Z,8.43
2018-09-04T05:00:50.436Z,8.60
2018-09-04T05:03:19.536Z,8.23
2018-09-04T05:05:48.486Z,7.63
2018-09-04T05:08:17.990Z,6.47
2018-09-04T05:10:46.892Z,6.07
2018-09-04T05:13:16.982Z,6.13
2018-09-04T05:15:45.851Z,5.63
2018-09-04T05:18:14.793Z,5.17
2018-09-04T05:20:43.938Z,5.37
2018-09-04T05:23:13.117Z,4.87
2018-09-04T05:25:41.998Z,5.03
2018-09-04T05:28:11.162Z,4.63
2018-09-04T05:30:40.994Z,5.10
2018-09-04T05:33:14.873Z,5.00
2018-09-04T05:35:49.668Z,6.00
2018-09-04T05:38:19.054Z,12.70
2018-09-04T05:40:48.006Z,10.17
2018-09-04T05:43:26.219Z,20.23
2018-09-04T05:45:56.225Z,13.47
2018-09-04T05:48:25.261Z,8.80
2018-09-04T05:50:54.125Z,7.57
2018-09-04T05:53:23.262Z,6.67
2018-09-04T05:55:52.234Z,6.53
2018-09-04T05:58:21.351Z,6.57
2018-09-04T06:00:53.634Z,6.70
2018-09-04T06:03:22.705Z,5.97
2018-09-04T06:05:51.760Z,5.77
2018-09-04T06:08:21.110Z,6.57
2018-09-04T06:10:50.114Z,5.43
2018-09-04T06:13:19.204Z,5.83
2018-09-04T06:15:48.208Z,5.27
2018-09-04T06:18:17.389Z,8.17
2018-09-04T06:20:46.286Z,6.20
2018-09-04T06:23:15.177Z,6.23
2018-09-04T06:25:44.147Z,7.03
2018-09-04T06:28:13.094Z,5.20
2018-09-04T06:30:42.132Z,4.43
2018-09-04T06:33:11.046Z,3.97
2018-09-04T06:35:40.039Z,4.13
2018-09-04T06:38:08.977Z,4.43
2018-09-04T06:40:37.920Z,4.30
2018-09-04T06:43:06.920Z,3.90
2018-09-04T06:45:35.847Z,3.23
2018-09-04T06:48:04.777Z,3.67
2018-09-04T06:50:33.768Z,3.80
2018-09-04T06:53:03.210Z,3.60
2018-09-04T06:55:42.617Z,3.47
2018-09-04T06:58:22.090Z,4.07
2018-09-04T07:00:52.240Z,3.50
2018-09-04T07:06:44.774Z,3.80
2018-09-04T07:09:14.807Z,3.20
2018-09-04T07:11:44.950Z,3.20
2018-09-04T07:14:13.849Z,3.20
2018-09-04T07:16:43.059Z,3.20
2018-09-04T07:19:16.642Z,3.17
2018-09-04T07:21:45.607Z,3.30
2018-09-04T07:24:14.937Z,3.30
2018-09-04T07:26:44.630Z,3.33
2018-09-04T07:29:13.537Z,3.10
2018-09-04T07:31:42.706Z,3.40
2018-09-04T07:34:11.679Z,3.20
2018-09-04T07:36:40.811Z,3.27
2018-09-04T07:39:11.475Z,3.43
2018-09-04T07:41:40.777Z,3.00
2018-09-04T07:44:09.772Z,3.50
2018-09-04T07:46:38.915Z,3.00
2018-09-04T07:49:07.863Z,2.87
2018-09-04T07:51:36.793Z,2.90
2018-09-04T07:54:05.785Z,2.90
2018-09-04T07:56:34.790Z,3.17
2018-09-04T07:59:03.834Z,3.10
2018-09-04T08:01:32.810Z,2.80
2018-09-04T08:04:01.727Z,2.77
2018-09-04T08:06:30.687Z,3.20
2018-09-04T08:08:59.645Z,2.90
2018-09-04T08:11:28.723Z,3.10
2018-09-04T08:13:57.728Z,3.33
2018-09-04T08:16:26.698Z,2.70
2018-09-04T08:18:55.618Z,2.33
2018-09-04T08:21:24.742Z,2.50
2018-09-04T08:23:53.675Z,2.87
2018-09-04T08:26:22.591Z,3.00
2018-09-04T08:28:51.508Z,2.70
2018-09-04T08:31:20.944Z,2.83
2018-09-04T08:33:50.007Z,2.90
2018-09-04T08:36:18.919Z,3.10
2018-09-04T08:38:50.109Z,2.83
2018-09-04T08:41:19.424Z,2.70
2018-09-04T08:43:48.885Z,2.70
2018-09-04T08:46:18.541Z,2.50
2018-09-04T08:48:47.517Z,2.63
2018-09-04T08:51:16.393Z,2.77
2018-09-04T08:53:45.319Z,3.10
2018-09-04T08:56:15.105Z,3.17
2018-09-04T08:58:44.080Z,2.43
2018-09-04T09:01:12.955Z,2.83
2018-09-04T09:03:42.013Z,2.40
2018-09-04T09:06:10.904Z,2.67
2018-09-04T09:08:39.825Z,2.23
2018-09-04T09:11:08.802Z,2.73
2018-09-04T09:13:37.766Z,2.57
2018-09-04T09:16:07.038Z,2.80
2018-09-04T09:18:35.970Z,2.63
2018-09-04T09:21:04.871Z,2.50
2018-09-04T09:23:33.829Z,2.83
2018-09-04T09:26:02.783Z,2.60
2018-09-04T09:28:31.661Z,2.90
2018-09-04T09:31:00.587Z,2.57
2018-09-04T09:33:29.441Z,2.80
2018-09-04T09:35:58.774Z,3.00
2018-09-04T09:38:30.619Z,3.07
2018-09-04T09:41:03.016Z,2.93
2018-09-04T09:43:32.065Z,2.80
2018-09-04T09:46:00.962Z,2.60
2018-09-04T09:48:45.123Z,2.57
2018-09-04T09:51:14.206Z,2.50
2018-09-04T09:53:43.099Z,2.83
2018-09-04T09:56:12.403Z,2.53
2018-09-04T09:58:41.755Z,3.27
2018-09-04T10:01:15.671Z,2.90
2018-09-04T10:03:49.146Z,2.60
2018-09-04T10:06:19.493Z,2.80
2018-09-04T10:08:48.475Z,3.20
2018-09-04T10:11:17.769Z,2.53
2018-09-04T10:13:47.085Z,2.03
2018-09-04T10:16:16.472Z,2.40
2018-09-04T10:18:45.430Z,3.00
2018-09-04T10:21:14.547Z,3.13
2018-09-04T10:23:43.438Z,3.10
2018-09-04T10:26:12.379Z,2.90
2018-09-04T10:28:41.275Z,3.00
2018-09-04T10:31:10.117Z,3.50
2018-09-04T10:33:39.036Z,3.00
2018-09-04T10:36:08.102Z,3.00
2018-09-04T10:38:36.941Z,2.77
2018-09-04T10:41:10.552Z,3.27
2018-09-04T10:43:40.315Z,3.17
2018-09-04T10:46:10.867Z,2.93
2018-09-04T10:48:40.115Z,2.80
2018-09-04T10:51:09.060Z,2.70
2018-09-04T10:53:38.046Z,3.00
2018-09-04T10:56:07.209Z,3.63
2018-09-04T10:58:36.261Z,3.50
2018-09-04T11:01:05.404Z,3.53
2018-09-04T11:03:34.495Z,3.10
2018-09-04T11:06:03.442Z,3.60
2018-09-04T11:08:32.339Z,3.60
2018-09-04T11:11:01.739Z,3.40
2018-09-04T11:13:30.816Z,3.37
2018-09-04T11:16:00.193Z,3.17
2018-09-04T11:18:29.160Z,3.00
2018-09-04T11:20:59.020Z,2.97
2018-09-04T11:23:28.013Z,3.30
2018-09-04T11:25:56.903Z,3.50
2018-09-04T11:28:25.757Z,3.20
2018-09-04T11:30:54.829Z,3.23
2018-09-04T11:33:23.857Z,3.70
2018-09-04T11:35:52.830Z,3.60
2018-09-04T11:38:21.754Z,3.03
2018-09-04T11:40:50.743Z,3.30
2018-09-04T11:43:19.862Z,3.37
2018-09-04T11:45:48.844Z,3.47
2018-09-04T11:48:18.584Z,2.77
2018-09-04T11:50:48.151Z,3.63
2018-09-04T11:53:17.156Z,3.23
2018-09-04T11:55:47.195Z,3.60
2018-09-04T11:58:16.143Z,3.20
2018-09-04T12:00:47.040Z,3.40
2018-09-04T12:03:18.377Z,3.10
2018-09-04T12:05:47.472Z,3.47
2018-09-04T12:08:16.375Z,3.50
2018-09-04T12:10:45.450Z,3.30
2018-09-04T12:13:18.585Z,3.10
2018-09-04T12:15:47.590Z,2.83
2018-09-04T12:18:16.547Z,3.20
2018-09-04T12:21:02.111Z,2.97
2018-09-04T12:23:31.086Z,3.00
2018-09-04T12:26:01.304Z,2.93
2018-09-04T12:28:30.230Z,3.03
2018-09-04T12:30:59.639Z,2.80
2018-09-04T12:33:28.622Z,3.00
2018-09-04T12:35:57.638Z,3.13
2018-09-04T12:38:31.719Z,3.40
2018-09-04T12:41:05.057Z,2.63
2018-09-04T12:43:34.101Z,2.87
2018-09-04T12:46:03.104Z,3.27
2018-09-04T12:48:32.205Z,3.10
2018-09-04T12:51:03.071Z,3.00
2018-09-04T12:53:32.751Z,2.87
2018-09-04T12:56:01.777Z,3.40
2018-09-04T12:58:30.635Z,3.20
2018-09-04T13:00:59.822Z,3.10
2018-09-04T13:03:29.723Z,3.10
2018-09-04T13:05:58.811Z,3.07
2018-09-04T13:08:29.355Z,3.13
2018-09-04T13:10:58.202Z,3.10
2018-09-04T13:13:27.147Z,3.10
2018-09-04T13:15:57.681Z,3.30
2018-09-04T13:18:32.880Z,3.30
2018-09-04T13:21:03.223Z,3.83
2018-09-04T13:23:33.732Z,4.07
2018-09-04T13:26:03.137Z,3.70
2018-09-04T13:28:32.774Z,4.10
2018-09-04T13:31:01.924Z,4.50
2018-09-04T13:33:31.064Z,4.67
2018-09-04T13:36:00.193Z,4.80
2018-09-04T13:38:29.171Z,4.60
2018-09-04T13:41:03.181Z,4.37
2018-09-04T13:43:32.885Z,5.27
2018-09-04T13:46:02.113Z,4.73
2018-09-04T13:48:33.606Z,5.40
2018-09-04T13:51:02.616Z,4.77
2018-09-04T13:53:31.753Z,4.70
2018-09-04T13:56:00.940Z,4.77
2018-09-04T13:58:30.035Z,4.30
2018-09-04T14:00:58.989Z,5.53
2018-09-04T14:03:28.132Z,5.03
2018-09-04T14:05:57.048Z,6.07
2018-09-04T14:22:53.379Z,5.63
2018-09-04T14:25:22.528Z,5.17
2018-09-04T14:27:51.654Z,6.27
2018-09-04T14:30:24.074Z,5.23
2018-09-04T14:32:52.944Z,5.03
2018-09-04T14:35:21.864Z,5.37
2018-09-04T14:37:50.852Z,6.50
2018-09-04T14:40:22.955Z,6.47
2018-09-04T14:42:52.175Z,5.63
2018-09-04T14:45:21.863Z,6.70
2018-09-04T14:47:51.172Z,6.00
2018-09-04T14:50:22.097Z,5.43
2018-09-04T14:52:51.008Z,5.53
2018-09-04T14:55:20.677Z,5.50
2018-09-04T14:57:51.557Z,5.30
2018-09-04T15:00:20.986Z,5.10
2018-09-04T15:02:50.050Z,4.57
2018-09-04T15:05:22.395Z,5.43
2018-09-04T15:07:51.777Z,5.30
2018-09-04T15:10:21.728Z,5.67
2018-09-04T15:12:50.628Z,5.27
2018-09-04T15:15:20.320Z,5.63
2018-09-04T15:17:49.416Z,5.30
2018-09-04T15:20:22.448Z,5.63
2018-09-04T15:22:51.452Z,5.27
2018-09-04T15:25:20.515Z,5.30
2018-09-04T15:27:49.499Z,5.60
2018-09-04T15:30:20.922Z,5.53
2018-09-04T15:32:50.431Z,5.90
2018-09-04T15:35:20.295Z,5.97
2018-09-04T15:37:49.640Z,5.93
2018-09-04T15:40:21.382Z,5.33
2018-09-04T15:42:50.459Z,4.97
2018-09-04T15:45:20.458Z,5.70
2018-09-04T15:47:49.806Z,6.07
2018-09-04T15:50:18.889Z,6.70
2018-09-04T15:52:47.887Z,5.67
2018-09-04T15:55:17.220Z,5.67
2018-09-04T15:57:46.727Z,5.23
2018-09-04T16:00:15.928Z,6.27
2018-09-04T16:02:44.963Z,6.47
2018-09-04T16:05:14.204Z,6.10
2018-09-04T16:07:43.201Z,5.37
2018-09-04T16:10:12.270Z,5.37
2018-09-04T16:12:41.186Z,5.40
2018-09-04T16:15:10.330Z,5.23
2018-09-04T16:17:39.517Z,5.73
2018-09-04T16:20:09.881Z,5.50
2018-09-04T16:22:39.070Z,5.33
2018-09-04T16:25:08.028Z,6.40
2018-09-04T16:27:36.995Z,6.13
2018-09-04T16:30:06.154Z,6.00
2018-09-04T16:32:35.193Z,6.43
2018-09-04T16:35:04.130Z,6.03
2018-09-04T16:37:33.162Z,6.60
2018-09-04T16:40:02.352Z,6.20
2018-09-04T16:42:31.700Z,6.70
2018-09-04T16:45:28.195Z,6.20
2018-09-04T16:47:57.307Z,6.00
2018-09-04T16:50:26.503Z,5.87
2018-09-04T16:52:55.667Z,5.50
2018-09-04T16:55:25.368Z,6.13
2018-09-04T16:57:55.361Z,6.10
2018-09-04T17:00:26.083Z,5.50
2018-09-04T17:02:56.039Z,5.70
2018-09-04T17:05:26.753Z,5.97
2018-09-04T17:07:56.168Z,5.67
2018-09-04T17:10:26.699Z,6.17
2018-09-04T17:12:56.382Z,5.70
2018-09-04T17:15:26.717Z,6.17
2018-09-04T17:17:55.800Z,5.10
2018-09-04T17:20:24.918Z,6.00
2018-09-04T17:22:54.154Z,5.87
2018-09-04T17:25:23.101Z,5.63
2018-09-04T17:27:52.556Z,5.70
2018-09-04T17:30:25.127Z,5.43
2018-09-04T17:32:54.563Z,5.73
2018-09-04T17:35:24.416Z,6.00
2018-09-04T17:37:54.188Z,6.03
2018-09-04T17:40:24.185Z,5.73
2018-09-04T17:42:53.117Z,5.80
2018-09-04T17:45:22.167Z,5.40
2018-09-04T17:47:51.271Z,5.37
2018-09-04T17:50:21.048Z,4.87
2018-09-04T17:52:50.133Z,5.13
2018-09-04T17:55:19.364Z,4.93
2018-09-04T17:57:48.245Z,5.47
2018-09-04T18:00:18.863Z,6.00
2018-09-04T18:02:47.826Z,6.37
2018-09-04T18:05:18.060Z,6.83
2018-09-04T18:07:47.081Z,5.70
2018-09-04T18:10:18.462Z,5.67
2018-09-04T18:12:47.408Z,6.10
2018-09-04T18:15:17.848Z,5.53
2018-09-04T18:17:47.924Z,5.93
2018-09-04T18:20:18.669Z,6.53
2018-09-04T18:22:47.688Z,5.97
2018-09-04T18:25:18.614Z,6.80
2018-09-04T18:27:48.137Z,6.77
2018-09-04T18:30:18.908Z,6.67
2018-09-04T18:32:47.811Z,7.07
2018-09-04T18:35:21.318Z,7.87
2018-09-04T18:37:50.659Z,6.83
2018-09-04T18:40:22.940Z,7.17
2018-09-04T18:42:52.731Z,7.33
2018-09-04T18:45:32.696Z,7.00
2018-09-04T18:48:01.620Z,6.83
2018-09-04T18:50:30.518Z,7.37
2018-09-04T18:53:00.447Z,6.50
2018-09-04T18:55:29.311Z,5.83
2018-09-04T18:57:58.302Z,6.67
2018-09-04T19:00:27.843Z,7.00
2018-09-04T19:02:59.873Z,8.17
2018-09-04T19:05:29.042Z,7.90
2018-09-04T19:07:58.249Z,7.50
2018-09-04T19:10:27.226Z,7.90
2018-09-04T19:12:56.376Z,9.10
2018-09-04T19:15:25.584Z,9.33
2018-09-04T19:17:55.658Z,8.47
2018-09-04T19:20:24.941Z,8.10
2018-09-04T19:22:54.538Z,8.97
2018-09-04T19:25:23.901Z,8.40
2018-09-04T19:27:53.166Z,8.00
2018-09-04T19:30:26.607Z,8.37
2018-09-04T19:32:55.964Z,8.13
2018-09-04T19:35:26.733Z,8.67
2018-09-04T19:37:56.518Z,9.27
2018-09-04T19:40:26.153Z,9.30
2018-09-04T19:42:55.947Z,9.00
2018-09-04T19:45:25.467Z,9.13
2018-09-04T19:47:54.507Z,9.60
2018-09-04T19:50:23.667Z,9.77
2018-09-04T19:52:57.516Z,8.33
2018-09-04T19:55:26.789Z,8.97
2018-09-04T19:57:56.117Z,8.00
2018-09-04T20:00:25.223Z,8.70
2018-09-04T20:05:33.513Z,7.33
2018-09-04T20:08:11.853Z,7.00
2018-09-04T20:10:40.920Z,6.37
2018-09-04T20:13:10.127Z,6.70
2018-09-04T20:15:39.244Z,6.37
2018-09-04T20:18:08.349Z,6.97
2018-09-04T20:20:37.406Z,8.00
2018-09-04T20:23:06.382Z,8.77
2018-09-04T20:25:35.379Z,7.80
2018-09-04T20:28:04.344Z,8.67
2018-09-04T20:30:33.427Z,8.90
2018-09-04T20:33:02.440Z,9.03
2018-09-04T20:35:31.502Z,7.90
2018-09-04T20:38:21.900Z,7.63
2018-09-04T20:40:51.945Z,7.87
2018-09-04T20:47:03.864Z,8.03
2018-09-04T20:49:32.956Z,7.73
2018-09-04T20:52:01.900Z,8.13
2018-09-04T20:54:31.077Z,8.33
2018-09-04T20:57:28.945Z,8.80
2018-09-04T21:00:10.009Z,8.40
2018-09-04T21:02:50.030Z,7.63
2018-09-04T21:05:30.258Z,7.93
2018-09-04T21:08:17.757Z,8.27
2018-09-04T21:10:48.403Z,6.80
2018-09-04T21:13:18.946Z,8.30
2018-09-04T21:15:48.175Z,8.40
2018-09-04T21:18:17.415Z,8.47
2018-09-04T21:20:47.542Z,10.03
2018-09-04T21:23:16.784Z,12.53
2018-09-04T21:25:46.255Z,11.83
2018-09-04T21:28:15.879Z,13.50
2018-09-04T21:30:44.820Z,11.10
2018-09-04T21:33:14.117Z,11.93
2018-09-04T21:35:43.146Z,11.20
2018-09-04T21:38:46.062Z,12.37
2018-09-04T21:41:15.228Z,15.90
2018-09-04T21:43:44.517Z,20.20
2018-09-04T21:46:13.860Z,15.47
2018-09-04T21:48:43.094Z,17.23
2018-09-04T21:51:27.044Z,19.43
2018-09-04T21:53:57.455Z,15.37
2018-09-04T21:56:27.332Z,20.93
2018-09-04T21:58:57.177Z,16.20
2018-09-04T22:01:28.610Z,15.47
2018-09-04T22:03:57.708Z,15.67
2018-09-04T22:06:28.572Z,15.87
2018-09-04T22:08:57.947Z,17.47
2018-09-04T22:11:27.669Z,14.70
2018-09-04T22:13:56.936Z,18.23
2018-09-04T22:16:28.158Z,16.97
2018-09-04T22:18:57.361Z,18.80
2018-09-04T22:24:55.022Z,15.00
2018-09-04T22:27:24.002Z,16.43
2018-09-04T22:29:53.064Z,15.50
2018-09-04T22:32:23.115Z,16.20
2018-09-04T22:34:53.583Z,16.63
2018-09-04T22:37:25.851Z,11.33
2018-09-04T22:39:55.992Z,10.87
2018-09-04T22:42:25.067Z,9.60
2018-09-04T22:44:54.185Z,8.07
2018-09-04T22:47:23.283Z,7.80
2018-09-04T22:49:57.374Z,7.07
2018-09-04T22:52:30.748Z,7.80
2018-09-04T22:55:05.390Z,7.47
2018-09-04T22:57:34.538Z,7.93
2018-09-04T23:00:03.731Z,8.17
2018-09-04T23:02:33.252Z,7.67
2018-09-04T23:05:02.904Z,7.90
2018-09-04T23:07:31.874Z,9.37
2018-09-04T23:10:01.093Z,9.17
2018-09-04T23:12:30.191Z,8.47
2018-09-04T23:14:59.259Z,7.73
2018-09-04T23:17:28.436Z,7.30
2018-09-04T23:19:57.545Z,7.87
2018-09-04T23:22:26.676Z,7.03
2018-09-04T23:24:55.807Z,8.03
2018-09-04T23:27:24.989Z,8.17
2018-09-04T23:29:54.124Z,7.43
2018-09-04T23:32:23.317Z,7.87
2018-09-04T23:34:52.471Z,7.17
2018-09-04T23:37:22.113Z,7.67
2018-09-04T23:39:51.261Z,8.03
2018-09-04T23:42:21.016Z,7.87
2018-09-04T23:44:50.116Z,9.13
2018-09-04T23:47:19.520Z,11.07
2018-09-04T23:49:48.599Z,11.37
2018-09-04T23:52:22.488Z,12.37
2018-09-04T23:54:51.657Z,14.20
2018-09-04T23:57:21.604Z,11.83
2018-09-04T23:59:51.971Z,11.37
